Insula Oya 2 — FUKI — position and weather

sailwx.info

Track history (hours):
 
Tides and Currents Weather Stations Pressure Air Temp Water Temp Dewpoint Dewpoint Depression Visibility Wind Speed Wind Dir Waves Ship Positions

Insula Oya 2

Last reported at 2016-Dec-02 23:33 UTC. Time now 2016-Dec-03 00:19 UTC.
Position N 46°54' W 002°08'.

Length 50 m; draft 2.4 m.

Type: Passenger vessel. MMSI: 227004900.

Date/timePositionNaut miles runAvg speedWind from/ knotsBaromVisibWave heightAir tempDewpointWater temp
2016-Dec-02 23:33N 46°54' W 002°08'0 0.0
2016-Dec-02 22:33N 46°54' W 002°08'0 0.0
2016-Dec-02 21:33N 46°54' W 002°08'0 0.0
2016-Dec-02 20:33N 46°54' W 002°08'0 0.0
2016-Dec-02 19:33N 46°54' W 002°08'0 0.0
2016-Dec-02 18:33N 46°54' W 002°08'0 0.0
2016-Dec-02 17:33N 46°54' W 002°08'0 0.0
2016-Dec-02 16:33N 46°54' W 002°08'1 1.5
2016-Dec-02 15:33N 46°54' W 002°10'12 3.8
2016-Dec-02 12:21N 46°44' W 002°21'0 0.0
2016-Dec-02 11:32N 46°44' W 002°21'0 0.0
2016-Dec-02 10:17N 46°44' W 002°21'0 0.0
2016-Dec-02 09:20N 46°44' W 002°21'0 0.0
2016-Dec-02 08:33N 46°44' W 002°21'0 0.0
2016-Dec-02 07:33N 46°44' W 002°21'1111.0
2016-Dec-02 06:33N 46°53' W 002°12'3 2.6
2016-Dec-02 05:33N 46°54' W 002°08'0 0.0
2016-Dec-02 04:33N 46°54' W 002°08'0 0.0
2016-Dec-02 03:33N 46°54' W 002°08'0 0.0
2016-Dec-02 02:34N 46°54' W 002°08'0 0.0
2016-Dec-02 01:33N 46°54' W 002°08'0 0.0
2016-Dec-02 00:33N 46°54' W 002°08'0 0.0
2016-Dec-01 23:34N 46°54' W 002°08'0 0.0
2016-Dec-01 22:33N 46°54' W 002°08'0 0.0
2016-Dec-01 21:34N 46°54' W 002°08'0 0.0
2016-Dec-01 20:33N 46°54' W 002°08'0 0.0
2016-Dec-01 19:33N 46°54' W 002°08'0 0.0
2016-Dec-01 18:34N 46°54' W 002°08'0 0.0
2016-Dec-01 17:33N 46°54' W 002°08'0 0.0
2016-Dec-01 16:34N 46°54' W 002°08'0 0.0
2016-Dec-01 15:33N 46°54' W 002°08'12 1.4
2016-Dec-01 06:30N 46°44' W 002°20'1212.9
2016-Dec-01 05:33N 46°54' W 002°08'0 0.1
2016-Dec-01 04:33N 46°54' W 002°08'0 0.0
2016-Dec-01 03:33N 46°54' W 002°08'0 0.0
2016-Dec-01 02:33N 46°54' W 002°08'0 0.0
2016-Dec-01 01:33N 46°54' W 002°08'0 0.0
2016-Dec-01 00:33N 46°54' W 002°08'0 0.0
2016-Nov-30 23:33N 46°54' W 002°08'0 0.0
2016-Nov-30 22:31N 46°54' W 002°08'0 0.0
2016-Nov-30 21:33N 46°54' W 002°08'0 0.0
2016-Nov-30 20:33N 46°54' W 002°08'0 0.0
2016-Nov-30 19:33N 46°54' W 002°08'0 0.0
2016-Nov-30 18:32N 46°54' W 002°08'0 0.0
2016-Nov-30 17:33N 46°54' W 002°08'0 0.0
2016-Nov-30 16:33N 46°54' W 002°08'0 0.0
2016-Nov-30 15:32N 46°54' W 002°08'5 0.5
2016-Nov-30 05:31N 46°50' W 002°14'5 5.4
2016-Nov-30 04:31N 46°54' W 002°08'0 0.0
2016-Nov-30 03:34N 46°54' W 002°08'0 0.0
2016-Nov-30 02:34N 46°54' W 002°08'0 0.0
2016-Nov-30 01:34N 46°54' W 002°08'0 0.0
2016-Nov-30 00:34N 46°54' W 002°08'0 0.0
2016-Nov-29 23:33N 46°54' W 002°08'0 0.0
2016-Nov-29 22:33N 46°54' W 002°08'0 0.0
2016-Nov-29 21:33N 46°54' W 002°08'0 0.0
2016-Nov-29 20:34N 46°54' W 002°08'0 0.0
2016-Nov-29 19:33N 46°54' W 002°08'0 0.0
2016-Nov-29 18:33N 46°54' W 002°08'0 0.0
2016-Nov-29 17:34N 46°54' W 002°08'0 0.0
2016-Nov-29 16:33N 46°54' W 002°08'0 0.0
2016-Nov-29 15:33N 46°54' W 002°08'0 0.0
2016-Nov-29 04:33N 46°54' W 002°08'0 0.1
2016-Nov-29 03:33N 46°54' W 002°08'0 0.0
2016-Nov-29 02:34N 46°54' W 002°08'0 0.0
2016-Nov-29 01:33N 46°54' W 002°08'0 0.0
2016-Nov-29 00:33N 46°54' W 002°08'0 0.0
2016-Nov-28 23:33N 46°54' W 002°08'0 0.0
2016-Nov-28 22:33N 46°54' W 002°08'0 0.0
2016-Nov-28 21:33N 46°54' W 002°08'0 0.0
2016-Nov-28 20:34N 46°54' W 002°08'0 0.0
2016-Nov-28 19:32N 46°54' W 002°08'0 0.0
2016-Nov-28 18:33N 46°54' W 002°08'0 0.0
2016-Nov-28 17:33N 46°54' W 002°08'0 0.0
2016-Nov-28 16:33N 46°54' W 002°08'0 0.0
2016-Nov-28 15:33N 46°54' W 002°08'13 1.2
2016-Nov-28 04:30N 46°44' W 002°21'0 0.0
2016-Nov-28 03:10N 46°44' W 002°21'0 0.0
2016-Nov-26 13:06N 46°44' W 002°21'813.5
2016-Nov-26 12:32N 46°50' W 002°15'6 5.9
2016-Nov-26 11:34N 46°54' W 002°08'0 0.0
2016-Nov-26 10:31N 46°54' W 002°08'0 0.0
2016-Nov-26 09:34N 46°54' W 002°08'0 0.0
2016-Nov-26 08:16N 46°54' W 002°08'0 0.0
2016-Nov-26 07:25N 46°54' W 002°08'0 0.0
2016-Nov-26 06:07N 46°54' W 002°08'0 0.0
2016-Nov-26 05:31N 46°54' W 002°08'0 0.0
2016-Nov-26 04:34N 46°54' W 002°08'0 0.0
2016-Nov-26 03:31N 46°54' W 002°08'0 0.0
2016-Nov-26 02:15N 46°54' W 002°08'0 0.0
2016-Nov-26 01:30N 46°54' W 002°08'0 0.0
2016-Nov-26 00:22N 46°54' W 002°08'0 0.0
2016-Nov-25 23:34N 46°54' W 002°08'0 0.0
2016-Nov-25 22:31N 46°54' W 002°08'0 0.0
2016-Nov-25 21:33N 46°54' W 002°08'0 0.0
2016-Nov-25 20:33N 46°54' W 002°08'0 0.0
2016-Nov-25 19:27N 46°54' W 002°08'0 0.0
2016-Nov-25 18:30N 46°54' W 002°08'0 0.0
2016-Nov-25 17:21N 46°54' W 002°08'0 0.0
2016-Nov-25 16:33N 46°54' W 002°08'4 3.7
2016-Nov-25 15:32N 46°52' W 002°13'1 0.3
2016-Nov-25 11:33N 46°53' W 002°12'3 2.7
2016-Nov-25 10:33N 46°54' W 002°08'0 0.0
2016-Nov-25 09:33N 46°54' W 002°08'0 0.0
2016-Nov-25 08:33N 46°54' W 002°08'0 0.0
2016-Nov-25 07:33N 46°54' W 002°08'0 0.0
2016-Nov-25 06:30N 46°54' W 002°08'0 0.0
2016-Nov-25 05:33N 46°54' W 002°08'0 0.0
2016-Nov-25 04:33N 46°54' W 002°08'0 0.0
2016-Nov-25 03:33N 46°54' W 002°08'0 0.0
2016-Nov-25 02:33N 46°54' W 002°08'0 0.0
2016-Nov-25 01:27N 46°54' W 002°08'0 0.0
2016-Nov-25 00:30N 46°54' W 002°08'0 0.0
2016-Nov-24 23:30N 46°54' W 002°08'0 0.0
2016-Nov-24 22:33N 46°54' W 002°08'0 0.0
2016-Nov-24 21:33N 46°54' W 002°08'0 0.0
2016-Nov-24 20:21N 46°54' W 002°08'0 0.0
2016-Nov-24 19:30N 46°54' W 002°08'0 0.0
2016-Nov-24 18:27N 46°54' W 002°08'0 0.0
2016-Nov-24 17:33N 46°54' W 002°08'0 0.0
2016-Nov-24 16:30N 46°54' W 002°08'0 0.0
2016-Nov-24 15:27N 46°54' W 002°08'3 3.7
2016-Nov-24 14:34N 46°52' W 002°13'2 0.4
2016-Nov-24 10:30N 46°53' W 002°11'2 1.9
2016-Nov-24 09:33N 46°54' W 002°08'0 0.0
2016-Nov-24 08:33N 46°54' W 002°08'0 0.0
2016-Nov-24 07:27N 46°54' W 002°08'0 0.0
2016-Nov-24 05:33N 46°54' W 002°08'0 0.0
2016-Nov-24 01:09N 46°54' W 002°08'0 0.0
2016-Nov-24 00:33N 46°54' W 002°08'0 0.0
2016-Nov-23 22:18N 46°54' W 002°08'0 0.0
2016-Nov-23 14:27N 46°54' W 002°08'2 0.5
2016-Nov-23 09:33N 46°53' W 002°12'2 2.1
2016-Nov-23 08:24N 46°54' W 002°08'0 0.0
2016-Nov-23 07:24N 46°54' W 002°08'0 0.0
2016-Nov-23 06:30N 46°54' W 002°08'0 0.0
2016-Nov-23 03:33N 46°54' W 002°08'0 0.0
2016-Nov-23 02:33N 46°54' W 002°08'0 0.0
2016-Nov-23 00:33N 46°54' W 002°08'  
Track history (hours):
 
Tides and Currents Weather Stations Pressure Air Temp Water Temp Dewpoint Dewpoint Depression Visibility Wind Speed Wind Dir Waves Ship Positions

Insula Oya 2

Last reported at 2016-Dec-02 23:33 UTC. Time now 2016-Dec-03 00:19 UTC.
Position N 46°54' W 002°08'.

Length 50 m; draft 2.4 m.

Type: Passenger vessel. MMSI: 227004900.

Date/timePositionNaut miles runAvg speedWind from/ knotsBaromVisibWave heightAir tempDewpointWater temp
2016-Dec-02 23:33N 46°54' W 002°08'0 0.0
2016-Dec-02 22:33N 46°54' W 002°08'0 0.0
2016-Dec-02 21:33N 46°54' W 002°08'0 0.0
2016-Dec-02 20:33N 46°54' W 002°08'0 0.0
2016-Dec-02 19:33N 46°54' W 002°08'0 0.0
2016-Dec-02 18:33N 46°54' W 002°08'0 0.0
2016-Dec-02 17:33N 46°54' W 002°08'0 0.0
2016-Dec-02 16:33N 46°54' W 002°08'1 1.5
2016-Dec-02 15:33N 46°54' W 002°10'12 3.8
2016-Dec-02 12:21N 46°44' W 002°21'0 0.0
2016-Dec-02 11:32N 46°44' W 002°21'0 0.0
2016-Dec-02 10:17N 46°44' W 002°21'0 0.0
2016-Dec-02 09:20N 46°44' W 002°21'0 0.0
2016-Dec-02 08:33N 46°44' W 002°21'0 0.0
2016-Dec-02 07:33N 46°44' W 002°21'1111.0
2016-Dec-02 06:33N 46°53' W 002°12'3 2.6
2016-Dec-02 05:33N 46°54' W 002°08'0 0.0
2016-Dec-02 04:33N 46°54' W 002°08'0 0.0
2016-Dec-02 03:33N 46°54' W 002°08'0 0.0
2016-Dec-02 02:34N 46°54' W 002°08'0 0.0
2016-Dec-02 01:33N 46°54' W 002°08'0 0.0
2016-Dec-02 00:33N 46°54' W 002°08'0 0.0
2016-Dec-01 23:34N 46°54' W 002°08'0 0.0
2016-Dec-01 22:33N 46°54' W 002°08'0 0.0
2016-Dec-01 21:34N 46°54' W 002°08'0 0.0
2016-Dec-01 20:33N 46°54' W 002°08'0 0.0
2016-Dec-01 19:33N 46°54' W 002°08'0 0.0
2016-Dec-01 18:34N 46°54' W 002°08'0 0.0
2016-Dec-01 17:33N 46°54' W 002°08'0 0.0
2016-Dec-01 16:34N 46°54' W 002°08'0 0.0
2016-Dec-01 15:33N 46°54' W 002°08'12 1.4
2016-Dec-01 06:30N 46°44' W 002°20'1212.9
2016-Dec-01 05:33N 46°54' W 002°08'0 0.1
2016-Dec-01 04:33N 46°54' W 002°08'0 0.0
2016-Dec-01 03:33N 46°54' W 002°08'0 0.0
2016-Dec-01 02:33N 46°54' W 002°08'0 0.0
2016-Dec-01 01:33N 46°54' W 002°08'0 0.0
2016-Dec-01 00:33N 46°54' W 002°08'0 0.0
2016-Nov-30 23:33N 46°54' W 002°08'0 0.0
2016-Nov-30 22:31N 46°54' W 002°08'0 0.0
2016-Nov-30 21:33N 46°54' W 002°08'0 0.0
2016-Nov-30 20:33N 46°54' W 002°08'0 0.0
2016-Nov-30 19:33N 46°54' W 002°08'0 0.0
2016-Nov-30 18:32N 46°54' W 002°08'0 0.0
2016-Nov-30 17:33N 46°54' W 002°08'0 0.0
2016-Nov-30 16:33N 46°54' W 002°08'0 0.0
2016-Nov-30 15:32N 46°54' W 002°08'5 0.5
2016-Nov-30 05:31N 46°50' W 002°14'5 5.4
2016-Nov-30 04:31N 46°54' W 002°08'0 0.0
2016-Nov-30 03:34N 46°54' W 002°08'0 0.0
2016-Nov-30 02:34N 46°54' W 002°08'0 0.0
2016-Nov-30 01:34N 46°54' W 002°08'0 0.0
2016-Nov-30 00:34N 46°54' W 002°08'0 0.0
2016-Nov-29 23:33N 46°54' W 002°08'0 0.0
2016-Nov-29 22:33N 46°54' W 002°08'0 0.0
2016-Nov-29 21:33N 46°54' W 002°08'0 0.0
2016-Nov-29 20:34N 46°54' W 002°08'0 0.0
2016-Nov-29 19:33N 46°54' W 002°08'0 0.0
2016-Nov-29 18:33N 46°54' W 002°08'0 0.0
2016-Nov-29 17:34N 46°54' W 002°08'0 0.0
2016-Nov-29 16:33N 46°54' W 002°08'0 0.0
2016-Nov-29 15:33N 46°54' W 002°08'0 0.0
2016-Nov-29 04:33N 46°54' W 002°08'0 0.1
2016-Nov-29 03:33N 46°54' W 002°08'0 0.0
2016-Nov-29 02:34N 46°54' W 002°08'0 0.0
2016-Nov-29 01:33N 46°54' W 002°08'0 0.0
2016-Nov-29 00:33N 46°54' W 002°08'0 0.0
2016-Nov-28 23:33N 46°54' W 002°08'0 0.0
2016-Nov-28 22:33N 46°54' W 002°08'0 0.0
2016-Nov-28 21:33N 46°54' W 002°08'0 0.0
2016-Nov-28 20:34N 46°54' W 002°08'0 0.0
2016-Nov-28 19:32N 46°54' W 002°08'0 0.0
2016-Nov-28 18:33N 46°54' W 002°08'0 0.0
2016-Nov-28 17:33N 46°54' W 002°08'0 0.0
2016-Nov-28 16:33N 46°54' W 002°08'0 0.0
2016-Nov-28 15:33N 46°54' W 002°08'13 1.2
2016-Nov-28 04:30N 46°44' W 002°21'0 0.0
2016-Nov-28 03:10N 46°44' W 002°21'0 0.0
2016-Nov-26 13:06N 46°44' W 002°21'813.5
2016-Nov-26 12:32N 46°50' W 002°15'6 5.9
2016-Nov-26 11:34N 46°54' W 002°08'0 0.0
2016-Nov-26 10:31N 46°54' W 002°08'0 0.0
2016-Nov-26 09:34N 46°54' W 002°08'0 0.0
2016-Nov-26 08:16N 46°54' W 002°08'0 0.0
2016-Nov-26 07:25N 46°54' W 002°08'0 0.0
2016-Nov-26 06:07N 46°54' W 002°08'0 0.0
2016-Nov-26 05:31N 46°54' W 002°08'0 0.0
2016-Nov-26 04:34N 46°54' W 002°08'0 0.0
2016-Nov-26 03:31N 46°54' W 002°08'0 0.0
2016-Nov-26 02:15N 46°54' W 002°08'0 0.0
2016-Nov-26 01:30N 46°54' W 002°08'0 0.0
2016-Nov-26 00:22N 46°54' W 002°08'0 0.0
2016-Nov-25 23:34N 46°54' W 002°08'0 0.0
2016-Nov-25 22:31N 46°54' W 002°08'0 0.0
2016-Nov-25 21:33N 46°54' W 002°08'0 0.0
2016-Nov-25 20:33N 46°54' W 002°08'0 0.0
2016-Nov-25 19:27N 46°54' W 002°08'0 0.0
2016-Nov-25 18:30N 46°54' W 002°08'0 0.0
2016-Nov-25 17:21N 46°54' W 002°08'0 0.0
2016-Nov-25 16:33N 46°54' W 002°08'4 3.7
2016-Nov-25 15:32N 46°52' W 002°13'1 0.3
2016-Nov-25 11:33N 46°53' W 002°12'3 2.7
2016-Nov-25 10:33N 46°54' W 002°08'0 0.0
2016-Nov-25 09:33N 46°54' W 002°08'0 0.0
2016-Nov-25 08:33N 46°54' W 002°08'0 0.0
2016-Nov-25 07:33N 46°54' W 002°08'0 0.0
2016-Nov-25 06:30N 46°54' W 002°08'0 0.0
2016-Nov-25 05:33N 46°54' W 002°08'0 0.0
2016-Nov-25 04:33N 46°54' W 002°08'0 0.0
2016-Nov-25 03:33N 46°54' W 002°08'0 0.0
2016-Nov-25 02:33N 46°54' W 002°08'0 0.0
2016-Nov-25 01:27N 46°54' W 002°08'0 0.0
2016-Nov-25 00:30N 46°54' W 002°08'0 0.0
2016-Nov-24 23:30N 46°54' W 002°08'0 0.0
2016-Nov-24 22:33N 46°54' W 002°08'0 0.0
2016-Nov-24 21:33N 46°54' W 002°08'0 0.0
2016-Nov-24 20:21N 46°54' W 002°08'0 0.0
2016-Nov-24 19:30N 46°54' W 002°08'0 0.0
2016-Nov-24 18:27N 46°54' W 002°08'0 0.0
2016-Nov-24 17:33N 46°54' W 002°08'0 0.0
2016-Nov-24 16:30N 46°54' W 002°08'0 0.0
2016-Nov-24 15:27N 46°54' W 002°08'3 3.7
2016-Nov-24 14:34N 46°52' W 002°13'2 0.4
2016-Nov-24 10:30N 46°53' W 002°11'2 1.9
2016-Nov-24 09:33N 46°54' W 002°08'0 0.0
2016-Nov-24 08:33N 46°54' W 002°08'0 0.0
2016-Nov-24 07:27N 46°54' W 002°08'0 0.0
2016-Nov-24 05:33N 46°54' W 002°08'0 0.0
2016-Nov-24 01:09N 46°54' W 002°08'0 0.0
2016-Nov-24 00:33N 46°54' W 002°08'0 0.0
2016-Nov-23 22:18N 46°54' W 002°08'0 0.0
2016-Nov-23 14:27N 46°54' W 002°08'2 0.5
2016-Nov-23 09:33N 46°53' W 002°12'2 2.1
2016-Nov-23 08:24N 46°54' W 002°08'0 0.0
2016-Nov-23 07:24N 46°54' W 002°08'0 0.0
2016-Nov-23 06:30N 46°54' W 002°08'0 0.0
2016-Nov-23 03:33N 46°54' W 002°08'0 0.0
2016-Nov-23 02:33N 46°54' W 002°08'0 0.0
2016-Nov-23 00:33N 46°54' W 002°08'  

Dump ship's entire track history